< < Back
Terminal Aerodrome Forecast


Current Version              Previous Versions:   1  2  3  4  5  6  7  8  9  

Terminal Aerodrome Forecast

670
FTUS42 KJAX 211100
TAFJAX
TAF
KJAX 211120Z 2112/2212 34004KT P6SM SKC
     FM212000 VRB04KT P6SM SKC
     FM220200 00000KT P6SM SCT250=

Latest METAR

093
SAUS80 KWBC 220000 CCA
MTRJAX
METAR KJAX 212356Z 16006KT 10SM FEW050 SCT250 23/19 A2997 RMK AO2 SLP150
T02330189 10306 20233 52010 $


USA.gov is the U.S. government's official web portal to all federal, state and local government web resources and services.